createdAt,value
2023-04-18T00:00:19.628Z,10.08
2023-04-18T00:02:47.902Z,10.05
2023-04-18T00:05:18.140Z,10.23
2023-04-18T00:07:46.032Z,10.12
2023-04-18T00:10:13.720Z,9.94
2023-04-18T00:12:41.237Z,9.84
2023-04-18T00:15:12.230Z,9.59
2023-04-18T00:17:39.933Z,9.65
2023-04-18T00:20:10.531Z,9.67
2023-04-18T00:22:42.251Z,9.76
2023-04-18T00:25:10.954Z,9.89
2023-04-18T00:27:39.504Z,9.84
2023-04-18T00:30:09.666Z,10.00
2023-04-18T00:32:38.890Z,9.90
2023-04-18T00:35:07.533Z,9.55
2023-04-18T00:37:35.051Z,9.85
2023-04-18T00:40:02.556Z,9.69
2023-04-18T00:42:30.035Z,9.61
2023-04-18T00:44:57.500Z,9.63
2023-04-18T00:47:25.113Z,9.65
2023-04-18T00:49:54.327Z,9.97
2023-04-18T00:52:22.332Z,9.92
2023-04-18T00:54:50.061Z,9.55
2023-04-18T00:57:17.688Z,9.85
2023-04-18T00:59:47.173Z,9.65
2023-04-18T01:02:14.654Z,9.68
2023-04-18T01:04:43.622Z,9.72
2023-04-18T01:07:13.001Z,9.62
2023-04-18T01:09:41.334Z,9.70
2023-04-18T01:12:08.922Z,9.73
2023-04-18T01:14:36.433Z,9.68
2023-04-18T01:17:03.870Z,9.72
2023-04-18T01:19:31.699Z,9.39
2023-04-18T01:21:59.152Z,9.55
2023-04-18T01:24:29.706Z,9.61
2023-04-18T01:26:57.317Z,9.42
2023-04-18T01:29:24.829Z,9.47
2023-04-18T01:31:52.333Z,9.19
2023-04-18T01:34:19.842Z,9.25
2023-04-18T01:36:47.632Z,9.02
2023-04-18T01:39:15.487Z,9.04
2023-04-18T01:41:44.346Z,9.13
2023-04-18T01:44:12.102Z,8.90
2023-04-18T01:46:40.693Z,9.09
2023-04-18T01:49:09.235Z,9.03
2023-04-18T01:51:38.706Z,8.80
2023-04-18T01:54:06.374Z,9.04
2023-04-18T01:56:33.861Z,8.94
2023-04-18T01:59:02.704Z,8.97
2023-04-18T02:01:30.357Z,8.83
2023-04-18T02:03:57.945Z,8.69
2023-04-18T02:06:26.055Z,8.76
2023-04-18T02:08:53.526Z,8.61
2023-04-18T02:11:21.007Z,8.81
2023-04-18T02:13:48.646Z,8.76
2023-04-18T02:16:17.494Z,8.60
2023-04-18T02:18:45.331Z,8.64
2023-04-18T02:21:12.781Z,8.35
2023-04-18T02:23:40.355Z,8.52
2023-04-18T02:26:07.848Z,8.73
2023-04-18T02:28:38.768Z,8.57
2023-04-18T02:31:07.169Z,8.54
2023-04-18T02:33:35.995Z,8.88
2023-04-18T02:36:03.502Z,8.60
2023-04-18T02:38:31.721Z,8.58
2023-04-18T02:40:59.211Z,8.67
2023-04-18T02:43:26.658Z,8.63
2023-04-18T02:45:54.162Z,8.54
2023-04-18T02:48:21.701Z,8.51
2023-04-18T02:50:50.577Z,8.51
2023-04-18T02:53:18.070Z,8.65
2023-04-18T02:55:45.558Z,8.66
2023-04-18T02:58:13.061Z,8.48
2023-04-18T03:00:40.589Z,8.41
2023-04-18T03:03:08.077Z,8.15
2023-04-18T03:05:35.589Z,8.50
2023-04-18T03:08:04.407Z,8.41
2023-04-18T03:10:32.094Z,8.31
2023-04-18T03:12:59.558Z,8.21
2023-04-18T03:15:27.011Z,8.32
2023-04-18T03:17:54.628Z,8.47
2023-04-18T03:20:22.377Z,8.59
2023-04-18T03:22:49.887Z,8.60
2023-04-18T03:25:18.875Z,8.54
2023-04-18T03:27:46.375Z,8.39
2023-04-18T03:30:14.101Z,8.21
2023-04-18T03:32:41.967Z,8.59
2023-04-18T03:35:10.991Z,8.57
2023-04-18T03:37:38.436Z,8.54
2023-04-18T03:40:06.918Z,8.67
2023-04-18T03:42:36.205Z,8.66
2023-04-18T03:45:04.253Z,8.37
2023-04-18T03:47:32.380Z,8.48
2023-04-18T03:49:59.889Z,8.29
2023-04-18T03:52:29.656Z,8.43
2023-04-18T03:54:57.364Z,8.57
2023-04-18T03:57:24.822Z,8.54
2023-04-18T03:59:53.643Z,8.47
2023-04-18T04:02:21.251Z,8.50
2023-04-18T04:04:49.023Z,8.53
2023-04-18T04:07:16.722Z,8.60
2023-04-18T04:09:44.177Z,8.27
2023-04-18T04:12:11.664Z,8.65
2023-04-18T04:14:39.121Z,8.54
2023-04-18T04:17:08.053Z,8.73
2023-04-18T04:19:35.602Z,8.65
2023-04-18T04:22:03.070Z,8.59
2023-04-18T04:24:30.618Z,8.48
2023-04-18T04:26:58.805Z,8.70
2023-04-18T04:29:26.743Z,8.81
2023-04-18T04:31:54.249Z,8.70
2023-04-18T04:34:23.184Z,8.70
2023-04-18T04:36:51.011Z,8.63
2023-04-18T04:39:18.635Z,8.75
2023-04-18T04:41:47.073Z,8.65
2023-04-18T04:44:17.642Z,8.84
2023-04-18T04:46:45.408Z,8.70
2023-04-18T04:49:13.071Z,8.81
2023-04-18T04:51:41.911Z,8.88
2023-04-18T04:54:09.362Z,8.81
2023-04-18T04:56:36.877Z,8.81
2023-04-18T04:59:04.418Z,8.99
2023-04-18T05:01:31.940Z,8.84
2023-04-18T05:03:59.511Z,9.10
2023-04-18T05:06:27.477Z,9.04
2023-04-18T05:08:57.511Z,8.92
2023-04-18T05:11:25.093Z,9.07
2023-04-18T05:13:52.557Z,8.87
2023-04-18T05:16:20.105Z,9.22
2023-04-18T05:18:47.813Z,9.37
2023-04-18T05:21:15.296Z,9.28
2023-04-18T05:23:42.750Z,9.42
2023-04-18T05:26:11.594Z,9.34
2023-04-18T05:28:39.197Z,9.28
2023-04-18T05:31:06.660Z,9.25
2023-04-18T05:33:34.216Z,9.24
2023-04-18T05:36:01.685Z,9.24
2023-04-18T05:38:29.129Z,9.16
2023-04-18T05:40:57.023Z,9.11
2023-04-18T05:43:25.794Z,9.10
2023-04-18T05:45:54.274Z,9.01
2023-04-18T05:48:24.989Z,9.03
2023-04-18T05:50:52.450Z,9.19
2023-04-18T05:53:19.886Z,8.87
2023-04-18T05:55:48.738Z,9.11
2023-04-18T05:58:16.405Z,9.14
2023-04-18T06:00:45.251Z,9.06
2023-04-18T06:03:12.826Z,8.95
2023-04-18T06:05:40.962Z,9.00
2023-04-18T06:08:08.475Z,9.48
2023-04-18T06:10:38.885Z,9.49
2023-04-18T06:13:06.816Z,9.48
2023-04-18T06:15:35.578Z,9.39
2023-04-18T06:18:04.451Z,9.46
2023-04-18T06:20:31.921Z,9.43
2023-04-18T06:22:59.347Z,9.54
2023-04-18T06:25:26.784Z,9.55
2023-04-18T06:27:54.324Z,9.47
2023-04-18T06:30:22.242Z,9.73
2023-04-18T06:32:49.925Z,9.65
2023-04-18T06:35:18.916Z,9.54
2023-04-18T06:37:46.681Z,9.13
2023-04-18T06:40:14.553Z,9.18
2023-04-18T06:42:43.201Z,9.39
2023-04-18T06:45:11.973Z,9.50
2023-04-18T06:47:40.108Z,9.46
2023-04-18T06:50:10.262Z,9.56
2023-04-18T06:52:44.019Z,9.75
2023-04-18T06:55:12.394Z,9.48
2023-04-18T06:57:40.648Z,9.69
2023-04-18T07:00:10.031Z,9.55
2023-04-18T07:02:39.365Z,9.70
2023-04-18T07:05:07.868Z,9.72
2023-04-18T07:07:35.868Z,9.81
2023-04-18T07:10:06.638Z,10.00
2023-04-18T07:12:34.674Z,9.86
2023-04-18T07:15:03.311Z,9.61
2023-04-18T07:17:30.847Z,9.70
2023-04-18T07:19:59.183Z,9.64
2023-04-18T07:22:26.815Z,9.87
2023-04-18T07:24:54.288Z,9.69
2023-04-18T07:27:23.103Z,9.81
2023-04-18T07:29:50.573Z,10.10
2023-04-18T07:32:18.052Z,9.72
2023-04-18T07:34:45.751Z,9.47
2023-04-18T07:37:14.884Z,9.61
2023-04-18T07:39:42.582Z,10.10
2023-04-18T07:42:11.159Z,10.27
2023-04-18T07:44:40.207Z,10.40
2023-04-18T07:47:09.831Z,10.23
2023-04-18T07:49:37.782Z,10.37
2023-04-18T07:52:05.958Z,10.34
2023-04-18T07:54:33.406Z,10.43
2023-04-18T07:57:01.003Z,10.57
2023-04-18T07:59:28.743Z,10.40
2023-04-18T08:01:57.583Z,10.61
2023-04-18T08:04:27.632Z,10.50
2023-04-18T08:06:56.608Z,10.38
2023-04-18T08:09:24.053Z,10.24
2023-04-18T08:11:51.488Z,10.26
2023-04-18T08:14:18.921Z,10.17
2023-04-18T08:16:46.436Z,10.05
2023-04-18T08:19:15.705Z,10.26
2023-04-18T08:21:43.375Z,10.41
2023-04-18T08:24:10.788Z,10.23
2023-04-18T08:26:38.264Z,10.43
2023-04-18T08:29:06.221Z,10.25
2023-04-18T08:31:33.750Z,10.16
2023-04-18T08:34:02.539Z,10.37
2023-04-18T08:36:32.524Z,10.42
2023-04-18T08:38:59.953Z,10.21
2023-04-18T08:41:28.826Z,9.86
2023-04-18T08:43:57.211Z,10.03
2023-04-18T08:46:24.858Z,10.13
2023-04-18T08:48:52.486Z,10.29
2023-04-18T08:51:19.921Z,10.36
2023-04-18T08:53:48.919Z,10.60
2023-04-18T08:56:16.384Z,10.28
2023-04-18T08:58:45.087Z,10.39
2023-04-18T09:01:13.446Z,9.74
2023-04-18T09:03:43.081Z,10.21
2023-04-18T09:06:13.570Z,10.23
2023-04-18T09:08:42.447Z,10.38
2023-04-18T09:11:25.848Z,10.30
2023-04-18T09:13:55.890Z,10.23
2023-04-18T09:16:24.048Z,9.96
2023-04-18T09:19:11.518Z,10.18
2023-04-18T09:21:44.257Z,9.83
2023-04-18T09:24:20.921Z,10.18
2023-04-18T09:26:51.199Z,10.33
2023-04-18T09:29:22.204Z,10.44
2023-04-18T09:31:57.565Z,10.53
2023-04-18T09:34:26.250Z,10.29
2023-04-18T09:37:17.638Z,10.29
2023-04-18T09:39:45.850Z,10.15
2023-04-18T09:42:14.756Z,10.31
2023-04-18T09:45:00.725Z,10.29
2023-04-18T09:47:28.826Z,9.98
2023-04-18T09:49:56.550Z,10.48
2023-04-18T09:52:25.696Z,10.63
2023-04-18T09:54:59.134Z,10.84
2023-04-18T09:57:30.191Z,10.75
2023-04-18T10:00:03.052Z,11.25
2023-04-18T10:02:39.143Z,11.29
2023-04-18T10:05:08.966Z,10.72
2023-04-18T10:07:36.746Z,10.65
2023-04-18T10:10:04.433Z,11.01
2023-04-18T10:12:34.108Z,11.21
2023-04-18T10:15:02.012Z,11.40
2023-04-18T10:17:29.889Z,11.40
2023-04-18T10:20:10.020Z,11.76
2023-04-18T10:22:37.479Z,11.62
2023-04-18T10:25:06.135Z,11.97
2023-04-18T10:28:01.100Z,11.82
2023-04-18T10:30:54.820Z,12.24
2023-04-18T10:33:41.978Z,12.69
2023-04-18T10:36:20.503Z,12.79
2023-04-18T10:38:50.232Z,12.98
2023-04-18T10:41:21.154Z,12.91
2023-04-18T10:44:18.022Z,13.23
2023-04-18T10:47:20.564Z,13.23
2023-04-18T10:49:57.153Z,13.75
2023-04-18T10:52:24.708Z,13.59
2023-04-18T10:54:58.394Z,14.13
2023-04-18T10:57:37.893Z,13.85
2023-04-18T11:00:11.104Z,14.11
2023-04-18T11:02:39.210Z,13.67
2023-04-18T11:05:08.866Z,13.84
2023-04-18T11:07:37.437Z,13.47
2023-04-18T11:10:06.154Z,13.56
2023-04-18T11:12:36.442Z,13.34
2023-04-18T11:15:10.541Z,13.96
2023-04-18T11:17:40.679Z,14.18
2023-04-18T11:20:11.028Z,14.34
2023-04-18T11:22:46.237Z,14.48
2023-04-18T11:25:14.136Z,14.75
2023-04-18T11:27:43.632Z,14.66
2023-04-18T11:30:12.102Z,14.51
2023-04-18T11:32:41.536Z,13.76
2023-04-18T11:35:10.697Z,13.84
2023-04-18T11:37:39.131Z,13.79
2023-04-18T11:40:09.356Z,13.62
2023-04-18T11:42:38.818Z,13.56
2023-04-18T11:45:11.082Z,13.98
2023-04-18T11:47:38.580Z,14.16
2023-04-18T11:50:09.420Z,14.12
2023-04-18T11:52:38.067Z,14.48
2023-04-18T11:55:14.022Z,14.91
2023-04-18T11:57:42.148Z,14.40
2023-04-18T12:00:12.314Z,14.80
2023-04-18T12:02:42.433Z,15.17
2023-04-18T12:05:15.041Z,15.13
2023-04-18T12:07:44.997Z,14.81
2023-04-18T12:10:25.298Z,14.60
2023-04-18T12:12:54.463Z,14.85
2023-04-18T12:15:24.024Z,15.26
2023-04-18T12:17:52.357Z,15.43
2023-04-18T12:20:24.690Z,15.83
2023-04-18T12:22:54.846Z,15.70
2023-04-18T12:25:27.063Z,16.01
2023-04-18T12:27:57.830Z,15.56
2023-04-18T12:30:27.658Z,15.30
2023-04-18T12:32:56.734Z,15.97
2023-04-18T12:35:26.278Z,16.02
2023-04-18T12:37:55.457Z,16.10
2023-04-18T12:40:23.798Z,15.83
2023-04-18T12:42:51.906Z,16.37
2023-04-18T12:45:21.632Z,16.50
2023-04-18T12:47:50.789Z,16.96
2023-04-18T12:50:19.931Z,16.50
2023-04-18T12:52:49.645Z,16.63
2023-04-18T12:55:17.129Z,16.98
2023-04-18T12:57:45.017Z,16.29
2023-04-18T13:00:13.963Z,16.15
2023-04-18T13:02:43.576Z,16.17
2023-04-18T13:05:13.007Z,16.30
2023-04-18T13:07:42.471Z,15.86
2023-04-18T13:10:13.155Z,16.31
2023-04-18T13:12:41.479Z,15.83
2023-04-18T13:15:09.905Z,16.04
2023-04-18T13:17:38.082Z,16.11
2023-04-18T13:20:06.920Z,15.88
2023-04-18T13:22:34.723Z,16.05
2023-04-18T13:25:02.192Z,17.19
2023-04-18T13:27:31.068Z,16.86
2023-04-18T13:29:58.552Z,16.40
2023-04-18T13:32:26.938Z,16.25
2023-04-18T13:34:56.020Z,16.18
2023-04-18T13:37:23.709Z,15.87
2023-04-18T13:39:51.306Z,16.49
2023-04-18T13:42:19.319Z,16.80
2023-04-18T13:44:48.477Z,16.87
2023-04-18T13:47:16.172Z,16.86
2023-04-18T13:49:43.743Z,17.39
2023-04-18T13:52:11.227Z,17.24
2023-04-18T13:54:38.695Z,17.15
2023-04-18T13:57:11.247Z,16.75
2023-04-18T13:59:39.993Z,16.97
2023-04-18T14:02:10.479Z,16.95
2023-04-18T14:04:38.316Z,17.07
2023-04-18T14:07:07.979Z,17.05
2023-04-18T14:09:35.537Z,17.44
2023-04-18T14:12:03.081Z,17.82
2023-04-18T14:14:30.717Z,17.92
2023-04-18T14:16:58.274Z,16.97
2023-04-18T14:19:27.796Z,17.12
2023-04-18T14:21:55.389Z,16.49
2023-04-18T14:24:22.975Z,16.76
2023-04-18T14:26:50.441Z,17.26
2023-04-18T14:29:17.949Z,17.20
2023-04-18T14:31:46.097Z,17.51
2023-04-18T14:34:13.688Z,17.31
2023-04-18T14:36:42.488Z,17.85
2023-04-18T14:39:10.608Z,17.93
2023-04-18T14:41:38.381Z,17.82
2023-04-18T14:44:06.410Z,17.38
2023-04-18T14:46:33.927Z,17.58
2023-04-18T14:49:01.485Z,17.72
2023-04-18T14:51:28.977Z,17.65
2023-04-18T14:53:58.828Z,17.32
2023-04-18T14:56:26.438Z,17.03
2023-04-18T14:58:53.870Z,17.28
2023-04-18T15:01:21.416Z,16.78
2023-04-18T15:03:51.315Z,16.33
2023-04-18T15:06:18.903Z,16.68
2023-04-18T15:08:46.348Z,16.59
2023-04-18T15:11:15.160Z,16.82
2023-04-18T15:13:42.673Z,16.57
2023-04-18T15:16:10.176Z,16.83
2023-04-18T15:18:37.858Z,16.74
2023-04-18T15:21:05.384Z,16.35
2023-04-18T15:23:34.016Z,16.46
2023-04-18T15:26:01.702Z,16.66
2023-04-18T15:28:30.521Z,16.60
2023-04-18T15:30:58.018Z,16.16
2023-04-18T15:33:25.877Z,15.97
2023-04-18T15:35:53.650Z,15.79
2023-04-18T15:38:21.098Z,15.94
2023-04-18T15:40:48.637Z,15.64
2023-04-18T15:43:17.130Z,15.91
2023-04-18T15:45:46.790Z,16.00
2023-04-18T15:48:14.385Z,16.55
2023-04-18T15:50:42.033Z,16.52
2023-04-18T15:53:09.864Z,16.43
2023-04-18T15:55:37.369Z,16.04
2023-04-18T15:58:05.007Z,16.06
2023-04-18T16:00:32.646Z,15.73
2023-04-18T16:03:01.631Z,15.88
2023-04-18T16:05:29.277Z,15.64
2023-04-18T16:07:57.984Z,15.68
2023-04-18T16:10:25.483Z,16.00
2023-04-18T16:12:53.510Z,16.20
2023-04-18T16:15:21.620Z,15.74
2023-04-18T16:17:49.119Z,15.69
2023-04-18T16:20:18.992Z,15.87
2023-04-18T16:22:46.859Z,15.77
2023-04-18T16:25:14.540Z,15.40
2023-04-18T16:27:42.469Z,15.59
2023-04-18T16:30:11.026Z,15.64
2023-04-18T16:32:38.904Z,15.77
2023-04-18T16:35:07.723Z,15.76
2023-04-18T16:37:36.691Z,15.38
2023-04-18T16:40:05.504Z,15.27
2023-04-18T16:42:33.192Z,15.28
2023-04-18T16:45:02.632Z,15.26
2023-04-18T16:47:30.648Z,15.26
2023-04-18T16:49:58.166Z,15.35
2023-04-18T16:52:26.011Z,15.46
2023-04-18T16:54:54.899Z,15.21
2023-04-18T16:57:22.487Z,14.82
2023-04-18T16:59:49.964Z,15.05
2023-04-18T17:02:17.548Z,14.82
2023-04-18T17:04:45.240Z,14.74
2023-04-18T17:07:13.126Z,14.90
2023-04-18T17:09:40.610Z,15.02
2023-04-18T17:12:09.444Z,14.87
2023-04-18T17:14:37.043Z,14.81
2023-04-18T17:17:04.815Z,14.74
2023-04-18T17:19:32.285Z,14.58
2023-04-18T17:22:00.194Z,14.90
2023-04-18T17:24:27.807Z,14.95
2023-04-18T17:26:57.558Z,14.81
2023-04-18T17:29:26.695Z,14.97
2023-04-18T17:31:54.204Z,14.89
2023-04-18T17:34:21.802Z,14.91
2023-04-18T17:36:49.258Z,14.73
2023-04-18T17:39:19.471Z,14.18
2023-04-18T17:41:47.167Z,14.42
2023-04-18T17:44:14.637Z,14.62
2023-04-18T17:46:43.459Z,14.52
2023-04-18T17:49:11.271Z,14.35
2023-04-18T17:51:38.811Z,13.95
2023-04-18T17:54:07.964Z,13.81
2023-04-18T17:56:35.622Z,14.16
2023-04-18T17:59:03.128Z,14.08
2023-04-18T18:01:31.328Z,14.06
2023-04-18T18:04:00.438Z,13.94
2023-04-18T18:06:28.082Z,13.60
2023-04-18T18:08:55.859Z,13.86
2023-04-18T18:11:23.658Z,13.51
2023-04-18T18:13:54.425Z,13.56
2023-04-18T18:16:22.669Z,13.44
2023-04-18T18:18:50.787Z,13.51
2023-04-18T18:21:19.746Z,13.47
2023-04-18T18:23:47.236Z,13.46
2023-04-18T18:26:14.733Z,13.30
2023-04-18T18:28:42.175Z,13.21
2023-04-18T18:31:09.696Z,13.20
2023-04-18T18:33:37.173Z,13.41
2023-04-18T18:36:05.400Z,13.46
2023-04-18T18:38:34.214Z,13.36
2023-04-18T18:41:03.751Z,12.99
2023-04-18T18:43:31.506Z,13.10
2023-04-18T18:45:59.095Z,13.08
2023-04-18T18:48:28.136Z,12.90
2023-04-18T18:50:56.380Z,13.07
2023-04-18T18:53:23.870Z,13.00
2023-04-18T18:55:52.714Z,13.10
2023-04-18T18:58:20.599Z,13.16
2023-04-18T19:00:48.126Z,13.06
2023-04-18T19:03:18.323Z,12.93
2023-04-18T19:05:47.069Z,12.89
2023-04-18T19:08:14.704Z,12.67
2023-04-18T19:10:43.074Z,12.88
2023-04-18T19:13:11.875Z,12.78
2023-04-18T19:15:39.369Z,12.82
2023-04-18T19:18:07.028Z,12.76
2023-04-18T19:20:34.821Z,12.72
2023-04-18T19:23:02.362Z,12.86
2023-04-18T19:25:29.824Z,12.43
2023-04-18T19:27:57.315Z,12.43
2023-04-18T19:30:26.217Z,12.61
2023-04-18T19:32:53.722Z,12.67
2023-04-18T19:35:21.492Z,12.67
2023-04-18T19:37:48.951Z,12.61
2023-04-18T19:40:16.585Z,12.61
2023-04-18T19:42:44.096Z,12.39
2023-04-18T19:45:14.897Z,12.32
2023-04-18T19:47:44.942Z,12.28
2023-04-18T19:50:12.533Z,12.49
2023-04-18T19:52:40.505Z,12.34
2023-04-18T19:55:08.882Z,12.45
2023-04-18T19:57:39.835Z,12.14
2023-04-18T20:00:08.828Z,12.44
2023-04-18T20:02:36.440Z,12.33
2023-04-18T20:05:07.311Z,12.44
2023-04-18T20:07:35.225Z,12.18
2023-04-18T20:10:04.211Z,12.14
2023-04-18T20:12:31.848Z,12.27
2023-04-18T20:14:59.352Z,11.89
2023-04-18T20:17:27.514Z,12.03
2023-04-18T20:19:56.952Z,12.04
2023-04-18T20:22:26.708Z,12.03
2023-04-18T20:24:57.014Z,11.72
2023-04-18T20:27:24.668Z,12.11
2023-04-18T20:29:52.495Z,12.15
2023-04-18T20:32:19.929Z,12.09
2023-04-18T20:34:47.525Z,12.06
2023-04-18T20:37:19.852Z,12.20
2023-04-18T20:39:48.720Z,12.29
2023-04-18T20:42:16.236Z,12.43
2023-04-18T20:44:44.598Z,12.06
2023-04-18T20:47:13.892Z,12.09
2023-04-18T20:49:42.832Z,12.02
2023-04-18T20:52:10.525Z,12.18
2023-04-18T20:54:38.031Z,12.36
2023-04-18T20:57:06.775Z,12.13
2023-04-18T20:59:34.303Z,12.37
2023-04-18T21:02:01.931Z,12.04
2023-04-18T21:04:30.164Z,11.97
2023-04-18T21:06:57.802Z,12.21
2023-04-18T21:09:25.270Z,12.31
2023-04-18T21:11:52.702Z,12.08
2023-04-18T21:14:21.465Z,12.24
2023-04-18T21:16:49.249Z,12.42
2023-04-18T21:19:16.703Z,12.35
2023-04-18T21:21:44.166Z,11.86
2023-04-18T21:24:11.665Z,12.09
2023-04-18T21:26:39.122Z,12.16
2023-04-18T21:29:06.570Z,12.06
2023-04-18T21:31:36.220Z,12.38
2023-04-18T21:34:05.135Z,12.20
2023-04-18T21:36:33.474Z,12.16
2023-04-18T21:39:01.704Z,11.98
2023-04-18T21:41:29.318Z,12.18
2023-04-18T21:43:56.744Z,11.99
2023-04-18T21:46:24.675Z,12.15
2023-04-18T21:48:53.573Z,11.94
2023-04-18T21:51:21.046Z,12.17
2023-04-18T21:53:48.474Z,12.08
2023-04-18T21:56:17.696Z,12.18
2023-04-18T21:58:45.166Z,12.10
2023-04-18T22:01:12.912Z,11.99
2023-04-18T22:03:40.743Z,12.17
2023-04-18T22:06:09.754Z,12.15
2023-04-18T22:08:37.348Z,12.26
2023-04-18T22:11:05.526Z,12.38
2023-04-18T22:13:33.637Z,12.24
2023-04-18T22:16:03.564Z,12.24
2023-04-18T22:18:33.548Z,12.42
2023-04-18T22:21:01.269Z,12.21
2023-04-18T22:23:30.752Z,12.28
2023-04-18T22:25:58.192Z,12.24
2023-04-18T22:28:27.690Z,12.11
2023-04-18T22:30:55.237Z,12.08
2023-04-18T22:33:22.718Z,12.25
2023-04-18T22:35:50.303Z,11.96
2023-04-18T22:38:17.768Z,11.99
2023-04-18T22:40:46.609Z,11.78
2023-04-18T22:43:14.177Z,11.87
2023-04-18T22:45:41.598Z,12.07
2023-04-18T22:48:12.119Z,12.16
2023-04-18T22:50:42.453Z,12.42
2023-04-18T22:53:10.407Z,12.36
2023-04-18T22:55:40.253Z,12.37
2023-04-18T22:58:09.923Z,12.20
2023-04-18T23:00:37.662Z,12.38
2023-04-18T23:03:05.504Z,12.11
2023-04-18T23:05:34.148Z,11.92
2023-04-18T23:08:01.609Z,12.13
2023-04-18T23:10:29.393Z,12.31
2023-04-18T23:12:57.329Z,12.24
2023-04-18T23:15:26.884Z,11.84
2023-04-18T23:17:54.914Z,12.24
2023-04-18T23:20:23.770Z,12.16
2023-04-18T23:22:51.695Z,12.05
2023-04-18T23:25:20.164Z,12.14
2023-04-18T23:27:47.760Z,12.35
2023-04-18T23:30:15.361Z,12.11
2023-04-18T23:32:44.173Z,12.30
2023-04-18T23:35:12.097Z,12.18
2023-04-18T23:37:39.516Z,12.30
2023-04-18T23:40:08.986Z,12.32
2023-04-18T23:42:36.964Z,12.28
2023-04-18T23:45:05.739Z,12.35
2023-04-18T23:47:33.383Z,12.35
2023-04-18T23:50:02.288Z,12.54
2023-04-18T23:52:29.828Z,12.65
2023-04-18T23:55:00.347Z,12.34
2023-04-18T23:57:27.870Z,12.06
2023-04-18T23:59:55.355Z,12.32
